sensor_id;sensor_type;location;lat;lon;timestamp;P1;durP1;ratioP1;P2;durP2;ratioP2
36205;SDS011;22242;48.796;9.930;2022-10-16T13:23:15;1.55;;;0.70;;
36205;SDS011;22242;48.796;9.930;2022-10-16T13:25:54;0.80;;;0.70;;
36205;SDS011;22242;48.796;9.930;2022-10-16T13:28:32;0.98;;;0.70;;
36205;SDS011;22242;48.796;9.930;2022-10-16T13:31:01;3.60;;;0.82;;
36205;SDS011;22242;48.796;9.930;2022-10-16T13:33:30;1.55;;;0.90;;
36205;SDS011;22242;48.796;9.930;2022-10-16T13:35:59;1.63;;;0.70;;
36205;SDS011;22242;48.796;9.930;2022-10-16T13:38:29;1.38;;;0.70;;
36205;SDS011;22242;48.796;9.930;2022-10-16T13:40:58;1.65;;;0.60;;
36205;SDS011;22242;48.796;9.930;2022-10-16T13:43:27;1.23;;;0.75;;
36205;SDS011;22242;48.796;9.930;2022-10-16T13:45:58;2.78;;;0.80;;
36205;SDS011;22242;48.796;9.930;2022-10-16T13:48:28;4.95;;;0.80;;
36205;SDS011;22242;48.796;9.930;2022-10-16T13:50:58;3.53;;;1.00;;
36205;SDS011;22242;48.796;9.930;2022-10-16T13:53:34;5.57;;;0.80;;
36205;SDS011;22242;48.796;9.930;2022-10-16T13:56:03;1.95;;;0.80;;
36205;SDS011;22242;48.796;9.930;2022-10-16T13:58:31;1.48;;;0.82;;
36205;SDS011;22242;48.796;9.930;2022-10-16T14:00:59;0.63;;;0.63;;
36205;SDS011;22242;48.796;9.930;2022-10-16T14:03:28;1.58;;;0.70;;
36205;SDS011;22242;48.796;9.930;2022-10-16T14:05:56;1.10;;;0.60;;
36205;SDS011;22242;48.796;9.930;2022-10-16T14:08:26;1.48;;;0.90;;
36205;SDS011;22242;48.796;9.930;2022-10-16T14:10:56;2.00;;;0.65;;
36205;SDS011;22242;48.796;9.930;2022-10-16T14:13:29;1.33;;;0.70;;
36205;SDS011;22242;48.796;9.930;2022-10-16T14:15:58;5.10;;;1.00;;
36205;SDS011;22242;48.796;9.930;2022-10-16T14:18:31;0.80;;;0.70;;
36205;SDS011;22242;48.796;9.930;2022-10-16T14:21:02;2.88;;;1.00;;
36205;SDS011;22242;48.796;9.930;2022-10-16T14:23:38;2.47;;;1.00;;
36205;SDS011;22242;48.796;9.930;2022-10-16T14:26:18;1.38;;;0.85;;
36205;SDS011;22242;48.796;9.930;2022-10-16T14:28:47;2.88;;;0.70;;
36205;SDS011;22242;48.796;9.930;2022-10-16T14:31:23;2.15;;;0.93;;
36205;SDS011;22242;48.796;9.930;2022-10-16T14:33:53;2.53;;;0.68;;
36205;SDS011;22242;48.796;9.930;2022-10-16T14:36:20;1.85;;;0.88;;
36205;SDS011;22242;48.796;9.930;2022-10-16T14:38:49;1.42;;;0.80;;
36205;SDS011;22242;48.796;9.930;2022-10-16T14:41:28;1.65;;;1.20;;
36205;SDS011;22242;48.796;9.930;2022-10-16T14:43:57;2.13;;;1.27;;
36205;SDS011;22242;48.796;9.930;2022-10-16T14:46:29;0.95;;;0.90;;
36205;SDS011;22242;48.796;9.930;2022-10-16T14:49:03;1.15;;;0.93;;
36205;SDS011;22242;48.796;9.930;2022-10-16T14:51:42;3.30;;;1.20;;
36205;SDS011;22242;48.796;9.930;2022-10-16T14:54:10;1.58;;;1.15;;
36205;SDS011;22242;48.796;9.930;2022-10-16T14:56:43;5.40;;;1.00;;
36205;SDS011;22242;48.796;9.930;2022-10-16T14:59:14;4.72;;;0.93;;
36205;SDS011;22242;48.796;9.930;2022-10-16T15:01:43;3.67;;;1.45;;
36205;SDS011;22242;48.796;9.930;2022-10-16T15:04:11;1.58;;;1.20;;
36205;SDS011;22242;48.796;9.930;2022-10-16T15:06:39;2.63;;;1.08;;
36205;SDS011;22242;48.796;9.930;2022-10-16T15:09:06;9.35;;;1.10;;
36205;SDS011;22242;48.796;9.930;2022-10-16T15:11:33;3.65;;;1.25;;
36205;SDS011;22242;48.796;9.930;2022-10-16T15:14:01;5.78;;;1.55;;
36205;SDS011;22242;48.796;9.930;2022-10-16T15:16:28;2.75;;;1.25;;
36205;SDS011;22242;48.796;9.930;2022-10-16T15:18:55;4.70;;;0.95;;
36205;SDS011;22242;48.796;9.930;2022-10-16T15:21:22;3.42;;;1.10;;
36205;SDS011;22242;48.796;9.930;2022-10-16T15:23:51;5.97;;;1.05;;
36205;SDS011;22242;48.796;9.930;2022-10-16T15:26:18;7.93;;;1.15;;
36205;SDS011;22242;48.796;9.930;2022-10-16T15:28:45;5.68;;;1.02;;
36205;SDS011;22242;48.796;9.930;2022-10-16T15:31:13;5.63;;;1.00;;
36205;SDS011;22242;48.796;9.930;2022-10-16T15:33:40;2.67;;;1.00;;
36205;SDS011;22242;48.796;9.930;2022-10-16T15:36:07;14.57;;;1.80;;
36205;SDS011;22242;48.796;9.930;2022-10-16T15:38:34;5.78;;;1.52;;
36205;SDS011;22242;48.796;9.930;2022-10-16T15:41:01;6.43;;;2.15;;
36205;SDS011;22242;48.796;9.930;2022-10-16T15:43:28;5.40;;;1.65;;
36205;SDS011;22242;48.796;9.930;2022-10-16T15:45:58;4.22;;;1.30;;
36205;SDS011;22242;48.796;9.930;2022-10-16T15:48:28;6.28;;;1.25;;
36205;SDS011;22242;48.796;9.930;2022-10-16T15:50:55;7.85;;;1.30;;
36205;SDS011;22242;48.796;9.930;2022-10-16T15:53:22;7.10;;;1.25;;
36205;SDS011;22242;48.796;9.930;2022-10-16T15:55:49;4.18;;;0.98;;
36205;SDS011;22242;48.796;9.930;2022-10-16T15:58:16;6.13;;;1.30;;
36205;SDS011;22242;48.796;9.930;2022-10-16T16:00:43;3.95;;;1.40;;
36205;SDS011;22242;48.796;9.930;2022-10-16T16:03:10;4.55;;;1.27;;
36205;SDS011;22242;48.796;9.930;2022-10-16T16:05:39;5.22;;;1.60;;
36205;SDS011;22242;48.796;9.930;2022-10-16T16:08:06;4.20;;;1.20;;
36205;SDS011;22242;48.796;9.930;2022-10-16T16:10:33;3.30;;;1.65;;
36205;SDS011;22242;48.796;9.930;2022-10-16T16:13:00;6.03;;;1.50;;
36205;SDS011;22242;48.796;9.930;2022-10-16T16:15:26;3.65;;;1.85;;
36205;SDS011;22242;48.796;9.930;2022-10-16T16:17:53;4.38;;;1.42;;
36205;SDS011;22242;48.796;9.930;2022-10-16T16:20:20;3.47;;;1.50;;
36205;SDS011;22242;48.796;9.930;2022-10-16T16:22:48;3.70;;;1.50;;
36205;SDS011;22242;48.796;9.930;2022-10-16T16:25:15;4.93;;;1.20;;
36205;SDS011;22242;48.796;9.930;2022-10-16T16:27:42;5.35;;;1.35;;
36205;SDS011;22242;48.796;9.930;2022-10-16T16:30:10;4.13;;;1.10;;
36205;SDS011;22242;48.796;9.930;2022-10-16T16:32:37;1.30;;;1.20;;
36205;SDS011;22242;48.796;9.930;2022-10-16T16:35:04;2.72;;;1.08;;
36205;SDS011;22242;48.796;9.930;2022-10-16T16:37:32;4.85;;;1.42;;
36205;SDS011;22242;48.796;9.930;2022-10-16T16:40:00;1.35;;;1.23;;
36205;SDS011;22242;48.796;9.930;2022-10-16T16:42:27;6.57;;;1.27;;
36205;SDS011;22242;48.796;9.930;2022-10-16T16:44:54;1.80;;;1.13;;
36205;SDS011;22242;48.796;9.930;2022-10-16T16:47:21;5.38;;;1.60;;
36205;SDS011;22242;48.796;9.930;2022-10-16T16:49:48;3.85;;;1.58;;
36205;SDS011;22242;48.796;9.930;2022-10-16T16:52:16;6.40;;;1.50;;
36205;SDS011;22242;48.796;9.930;2022-10-16T16:54:43;7.88;;;1.50;;
36205;SDS011;22242;48.796;9.930;2022-10-16T16:57:18;4.20;;;1.52;;
36205;SDS011;22242;48.796;9.930;2022-10-16T16:59:45;5.32;;;1.48;;
36205;SDS011;22242;48.796;9.930;2022-10-16T17:02:12;2.30;;;1.30;;
36205;SDS011;22242;48.796;9.930;2022-10-16T17:04:40;5.63;;;1.45;;
36205;SDS011;22242;48.796;9.930;2022-10-16T17:07:06;5.95;;;1.70;;
36205;SDS011;22242;48.796;9.930;2022-10-16T17:09:33;3.30;;;1.20;;
36205;SDS011;22242;48.796;9.930;2022-10-16T17:12:00;4.60;;;1.23;;
36205;SDS011;22242;48.796;9.930;2022-10-16T17:14:28;3.75;;;1.77;;
36205;SDS011;22242;48.796;9.930;2022-10-16T17:16:55;2.55;;;1.45;;
36205;SDS011;22242;48.796;9.930;2022-10-16T17:19:22;3.80;;;1.60;;
36205;SDS011;22242;48.796;9.930;2022-10-16T17:21:49;2.72;;;1.17;;
36205;SDS011;22242;48.796;9.930;2022-10-16T17:24:17;2.13;;;1.20;;
36205;SDS011;22242;48.796;9.930;2022-10-16T17:26:45;5.53;;;1.50;;
36205;SDS011;22242;48.796;9.930;2022-10-16T17:29:13;1.80;;;1.52;;
36205;SDS011;22242;48.796;9.930;2022-10-16T17:31:43;4.30;;;1.50;;
36205;SDS011;22242;48.796;9.930;2022-10-16T17:34:10;2.33;;;1.25;;
36205;SDS011;22242;48.796;9.930;2022-10-16T17:36:38;4.53;;;1.40;;
36205;SDS011;22242;48.796;9.930;2022-10-16T17:39:08;3.90;;;1.50;;
36205;SDS011;22242;48.796;9.930;2022-10-16T17:41:37;5.80;;;1.40;;
36205;SDS011;22242;48.796;9.930;2022-10-16T17:44:04;3.22;;;1.25;;
36205;SDS011;22242;48.796;9.930;2022-10-16T17:46:32;2.75;;;1.30;;
36205;SDS011;22242;48.796;9.930;2022-10-16T17:49:00;1.63;;;1.30;;
36205;SDS011;22242;48.796;9.930;2022-10-16T17:51:28;6.40;;;1.35;;
36205;SDS011;22242;48.796;9.930;2022-10-16T17:53:57;6.57;;;1.77;;
36205;SDS011;22242;48.796;9.930;2022-10-16T17:56:25;5.03;;;1.60;;
36205;SDS011;22242;48.796;9.930;2022-10-16T17:58:53;2.20;;;1.30;;
36205;SDS011;22242;48.796;9.930;2022-10-16T18:01:24;5.55;;;1.35;;
36205;SDS011;22242;48.796;9.930;2022-10-16T18:03:53;3.58;;;1.17;;
36205;SDS011;22242;48.796;9.930;2022-10-16T18:06:23;6.90;;;1.38;;
36205;SDS011;22242;48.796;9.930;2022-10-16T18:08:50;4.32;;;1.10;;
36205;SDS011;22242;48.796;9.930;2022-10-16T18:11:18;2.88;;;1.20;;
36205;SDS011;22242;48.796;9.930;2022-10-16T18:13:45;2.85;;;1.30;;
36205;SDS011;22242;48.796;9.930;2022-10-16T18:16:12;3.20;;;1.23;;
36205;SDS011;22242;48.796;9.930;2022-10-16T18:18:40;5.05;;;1.23;;
36205;SDS011;22242;48.796;9.930;2022-10-16T18:21:10;6.82;;;1.63;;
36205;SDS011;22242;48.796;9.930;2022-10-16T18:23:40;2.78;;;1.10;;
36205;SDS011;22242;48.796;9.930;2022-10-16T18:26:07;3.38;;;1.13;;
36205;SDS011;22242;48.796;9.930;2022-10-16T18:28:35;3.47;;;1.50;;
36205;SDS011;22242;48.796;9.930;2022-10-16T18:31:03;3.20;;;1.88;;
36205;SDS011;22242;48.796;9.930;2022-10-16T18:33:32;3.40;;;1.60;;
36205;SDS011;22242;48.796;9.930;2022-10-16T18:35:59;6.95;;;1.70;;
36205;SDS011;22242;48.796;9.930;2022-10-16T18:38:27;5.18;;;1.92;;
36205;SDS011;22242;48.796;9.930;2022-10-16T18:40:56;4.47;;;1.80;;
36205;SDS011;22242;48.796;9.930;2022-10-16T18:43:25;3.75;;;1.50;;
36205;SDS011;22242;48.796;9.930;2022-10-16T18:45:55;2.85;;;1.70;;
36205;SDS011;22242;48.796;9.930;2022-10-16T18:48:22;5.88;;;1.60;;
36205;SDS011;22242;48.796;9.930;2022-10-16T18:50:49;3.90;;;1.48;;
36205;SDS011;22242;48.796;9.930;2022-10-16T18:53:16;7.30;;;1.45;;
36205;SDS011;22242;48.796;9.930;2022-10-16T18:55:49;3.55;;;1.65;;
36205;SDS011;22242;48.796;9.930;2022-10-16T18:58:18;7.40;;;1.85;;
36205;SDS011;22242;48.796;9.930;2022-10-16T19:00:45;4.20;;;1.70;;
36205;SDS011;22242;48.796;9.930;2022-10-16T19:03:12;3.10;;;1.73;;
36205;SDS011;22242;48.796;9.930;2022-10-16T19:05:38;2.60;;;1.65;;
36205;SDS011;22242;48.796;9.930;2022-10-16T19:08:06;4.10;;;1.70;;
36205;SDS011;22242;48.796;9.930;2022-10-16T19:10:35;4.63;;;1.50;;
36205;SDS011;22242;48.796;9.930;2022-10-16T19:13:02;2.80;;;1.30;;
36205;SDS011;22242;48.796;9.930;2022-10-16T19:15:30;4.63;;;1.30;;
36205;SDS011;22242;48.796;9.930;2022-10-16T19:17:57;5.55;;;1.75;;
36205;SDS011;22242;48.796;9.930;2022-10-16T19:20:24;4.72;;;1.60;;
36205;SDS011;22242;48.796;9.930;2022-10-16T19:22:51;5.75;;;1.83;;
36205;SDS011;22242;48.796;9.930;2022-10-16T19:25:20;8.60;;;1.95;;
36205;SDS011;22242;48.796;9.930;2022-10-16T19:27:47;3.78;;;1.50;;
36205;SDS011;22242;48.796;9.930;2022-10-16T19:30:15;1.35;;;1.10;;
36205;SDS011;22242;48.796;9.930;2022-10-16T19:32:44;5.82;;;1.60;;
36205;SDS011;22242;48.796;9.930;2022-10-16T19:35:13;4.30;;;1.40;;
36205;SDS011;22242;48.796;9.930;2022-10-16T19:37:41;3.20;;;1.35;;
36205;SDS011;22242;48.796;9.930;2022-10-16T19:40:08;7.90;;;1.58;;
36205;SDS011;22242;48.796;9.930;2022-10-16T19:42:35;6.15;;;1.60;;
36205;SDS011;22242;48.796;9.930;2022-10-16T19:45:08;2.22;;;1.40;;
36205;SDS011;22242;48.796;9.930;2022-10-16T19:47:35;7.53;;;1.63;;
36205;SDS011;22242;48.796;9.930;2022-10-16T19:50:04;3.72;;;1.15;;
36205;SDS011;22242;48.796;9.930;2022-10-16T19:52:34;2.20;;;1.10;;
36205;SDS011;22242;48.796;9.930;2022-10-16T19:55:02;2.53;;;1.27;;
36205;SDS011;22242;48.796;9.930;2022-10-16T19:57:31;5.95;;;1.60;;
36205;SDS011;22242;48.796;9.930;2022-10-16T19:59:58;2.17;;;1.45;;
36205;SDS011;22242;48.796;9.930;2022-10-16T20:02:25;6.53;;;1.60;;
36205;SDS011;22242;48.796;9.930;2022-10-16T20:04:52;6.93;;;1.40;;
36205;SDS011;22242;48.796;9.930;2022-10-16T20:07:20;4.90;;;1.70;;
36205;SDS011;22242;48.796;9.930;2022-10-16T20:09:48;2.95;;;1.30;;
36205;SDS011;22242;48.796;9.930;2022-10-16T20:12:15;4.18;;;1.38;;
36205;SDS011;22242;48.796;9.930;2022-10-16T20:14:41;6.13;;;1.55;;
36205;SDS011;22242;48.796;9.930;2022-10-16T20:17:09;2.35;;;1.42;;
36205;SDS011;22242;48.796;9.930;2022-10-16T20:19:35;6.95;;;1.65;;
36205;SDS011;22242;48.796;9.930;2022-10-16T20:22:03;8.27;;;1.60;;
36205;SDS011;22242;48.796;9.930;2022-10-16T20:24:32;3.58;;;2.05;;
36205;SDS011;22242;48.796;9.930;2022-10-16T20:26:59;6.88;;;1.88;;
36205;SDS011;22242;48.796;9.930;2022-10-16T20:29:26;4.53;;;1.35;;
36205;SDS011;22242;48.796;9.930;2022-10-16T20:31:53;4.03;;;1.13;;
36205;SDS011;22242;48.796;9.930;2022-10-16T20:34:19;6.15;;;1.20;;
36205;SDS011;22242;48.796;9.930;2022-10-16T20:36:46;7.82;;;2.42;;
36205;SDS011;22242;48.796;9.930;2022-10-16T20:39:14;4.10;;;1.60;;
36205;SDS011;22242;48.796;9.930;2022-10-16T20:41:43;6.78;;;2.38;;
36205;SDS011;22242;48.796;9.930;2022-10-16T20:44:09;3.03;;;1.25;;
36205;SDS011;22242;48.796;9.930;2022-10-16T20:46:36;8.32;;;1.23;;
36205;SDS011;22242;48.796;9.930;2022-10-16T20:49:03;5.63;;;1.38;;
36205;SDS011;22242;48.796;9.930;2022-10-16T20:51:31;7.57;;;2.00;;
36205;SDS011;22242;48.796;9.930;2022-10-16T20:53:58;2.67;;;1.10;;
36205;SDS011;22242;48.796;9.930;2022-10-16T20:56:26;1.45;;;1.10;;
36205;SDS011;22242;48.796;9.930;2022-10-16T20:58:56;1.60;;;1.10;;
36205;SDS011;22242;48.796;9.930;2022-10-16T21:01:24;3.97;;;1.40;;
36205;SDS011;22242;48.796;9.930;2022-10-16T21:03:53;7.15;;;1.70;;
36205;SDS011;22242;48.796;9.930;2022-10-16T21:06:21;4.85;;;1.92;;
36205;SDS011;22242;48.796;9.930;2022-10-16T21:08:48;2.83;;;1.10;;
36205;SDS011;22242;48.796;9.930;2022-10-16T21:11:16;2.55;;;1.00;;
36205;SDS011;22242;48.796;9.930;2022-10-16T21:13:44;3.17;;;0.90;;
36205;SDS011;22242;48.796;9.930;2022-10-16T21:16:13;1.52;;;0.90;;
36205;SDS011;22242;48.796;9.930;2022-10-16T21:18:41;2.22;;;1.23;;
36205;SDS011;22242;48.796;9.930;2022-10-16T21:21:08;2.67;;;1.00;;
36205;SDS011;22242;48.796;9.930;2022-10-16T21:23:36;2.35;;;1.42;;
36205;SDS011;22242;48.796;9.930;2022-10-16T21:26:03;3.90;;;1.58;;
36205;SDS011;22242;48.796;9.930;2022-10-16T21:28:30;3.30;;;1.38;;
36205;SDS011;22242;48.796;9.930;2022-10-16T21:30:57;4.18;;;1.02;;
36205;SDS011;22242;48.796;9.930;2022-10-16T21:33:25;2.17;;;0.85;;
36205;SDS011;22242;48.796;9.930;2022-10-16T21:35:52;1.35;;;0.82;;
36205;SDS011;22242;48.796;9.930;2022-10-16T21:38:19;1.75;;;1.00;;
36205;SDS011;22242;48.796;9.930;2022-10-16T21:40:47;4.35;;;1.00;;
36205;SDS011;22242;48.796;9.930;2022-10-16T21:43:14;2.50;;;1.42;;
36205;SDS011;22242;48.796;9.930;2022-10-16T21:45:41;2.28;;;1.08;;
36205;SDS011;22242;48.796;9.930;2022-10-16T21:48:07;4.20;;;1.30;;
36205;SDS011;22242;48.796;9.930;2022-10-16T21:50:36;3.38;;;1.05;;
36205;SDS011;22242;48.796;9.930;2022-10-16T21:53:02;1.30;;;0.98;;
36205;SDS011;22242;48.796;9.930;2022-10-16T21:55:34;0.80;;;0.80;;
36205;SDS011;22242;48.796;9.930;2022-10-16T21:58:01;2.85;;;0.90;;
36205;SDS011;22242;48.796;9.930;2022-10-16T22:00:28;1.48;;;1.02;;
36205;SDS011;22242;48.796;9.930;2022-10-16T22:02:55;2.75;;;1.00;;
36205;SDS011;22242;48.796;9.930;2022-10-16T22:05:22;1.20;;;0.82;;
36205;SDS011;22242;48.796;9.930;2022-10-16T22:07:50;3.45;;;0.90;;
36205;SDS011;22242;48.796;9.930;2022-10-16T22:10:17;1.98;;;0.90;;
36205;SDS011;22242;48.796;9.930;2022-10-16T22:12:44;1.00;;;0.90;;
36205;SDS011;22242;48.796;9.930;2022-10-16T22:15:11;1.35;;;1.00;;
36205;SDS011;22242;48.796;9.930;2022-10-16T22:17:37;3.42;;;0.88;;
36205;SDS011;22242;48.796;9.930;2022-10-16T22:20:05;1.75;;;1.05;;
36205;SDS011;22242;48.796;9.930;2022-10-16T22:22:32;2.33;;;1.08;;
36205;SDS011;22242;48.796;9.930;2022-10-16T22:25:00;1.23;;;0.80;;
36205;SDS011;22242;48.796;9.930;2022-10-16T22:27:27;2.47;;;0.80;;
36205;SDS011;22242;48.796;9.930;2022-10-16T22:29:54;1.02;;;0.90;;
36205;SDS011;22242;48.796;9.930;2022-10-16T22:32:21;1.85;;;1.10;;
36205;SDS011;22242;48.796;9.930;2022-10-16T22:34:48;2.10;;;0.98;;
36205;SDS011;22242;48.796;9.930;2022-10-16T22:37:15;0.82;;;0.77;;
36205;SDS011;22242;48.796;9.930;2022-10-16T22:39:41;2.25;;;0.82;;
36205;SDS011;22242;48.796;9.930;2022-10-16T22:42:10;4.22;;;0.75;;
36205;SDS011;22242;48.796;9.930;2022-10-16T22:44:37;1.88;;;0.90;;
36205;SDS011;22242;48.796;9.930;2022-10-16T22:47:04;2.80;;;0.80;;
36205;SDS011;22242;48.796;9.930;2022-10-16T22:49:30;1.77;;;0.60;;
36205;SDS011;22242;48.796;9.930;2022-10-16T22:51:58;1.88;;;1.10;;
36205;SDS011;22242;48.796;9.930;2022-10-16T22:54:25;1.85;;;0.98;;
36205;SDS011;22242;48.796;9.930;2022-10-16T22:56:52;1.10;;;0.60;;
36205;SDS011;22242;48.796;9.930;2022-10-16T22:59:20;0.75;;;0.75;;
36205;SDS011;22242;48.796;9.930;2022-10-16T23:01:47;1.02;;;0.90;;
36205;SDS011;22242;48.796;9.930;2022-10-16T23:04:14;0.60;;;0.60;;
36205;SDS011;22242;48.796;9.930;2022-10-16T23:06:41;2.90;;;0.80;;
36205;SDS011;22242;48.796;9.930;2022-10-16T23:09:08;2.30;;;0.93;;
36205;SDS011;22242;48.796;9.930;2022-10-16T23:11:35;3.63;;;0.80;;
36205;SDS011;22242;48.796;9.930;2022-10-16T23:14:02;1.42;;;0.70;;
36205;SDS011;22242;48.796;9.930;2022-10-16T23:16:30;2.70;;;0.98;;
36205;SDS011;22242;48.796;9.930;2022-10-16T23:18:57;2.13;;;0.90;;
36205;SDS011;22242;48.796;9.930;2022-10-16T23:21:24;4.47;;;0.80;;
36205;SDS011;22242;48.796;9.930;2022-10-16T23:23:51;2.55;;;0.95;;
36205;SDS011;22242;48.796;9.930;2022-10-16T23:26:19;1.48;;;0.98;;
36205;SDS011;22242;48.796;9.930;2022-10-16T23:28:47;2.03;;;0.85;;
36205;SDS011;22242;48.796;9.930;2022-10-16T23:31:14;1.60;;;0.80;;
36205;SDS011;22242;48.796;9.930;2022-10-16T23:33:43;0.85;;;0.80;;
36205;SDS011;22242;48.796;9.930;2022-10-16T23:36:11;3.78;;;0.95;;
36205;SDS011;22242;48.796;9.930;2022-10-16T23:38:39;2.53;;;0.65;;
36205;SDS011;22242;48.796;9.930;2022-10-16T23:41:07;2.05;;;0.80;;
36205;SDS011;22242;48.796;9.930;2022-10-16T23:43:34;0.85;;;0.85;;
36205;SDS011;22242;48.796;9.930;2022-10-16T23:46:01;2.20;;;0.90;;
36205;SDS011;22242;48.796;9.930;2022-10-16T23:48:28;1.02;;;0.88;;
36205;SDS011;22242;48.796;9.930;2022-10-16T23:50:57;4.15;;;0.80;;
36205;SDS011;22242;48.796;9.930;2022-10-16T23:53:24;1.00;;;0.80;;
36205;SDS011;22242;48.796;9.930;2022-10-16T23:55:51;1.15;;;0.75;;
36205;SDS011;22242;48.796;9.930;2022-10-16T23:58:18;0.70;;;0.70;;
